Time;durP1;ratioP1;P1;durP2;ratioP2;P2;SDS_P1;SDS_P2;PMS_P1;PMS_P2;Temp;Humidity;BMP_temperature;BMP_pressure;BME280_temperature;BME280_humidity;BME280_pressure;Samples;Min_cycle;Max_cycle;Signal;HPM_P1;HPM_P2
2023/03/20 00:01:15;;;;;;;1.60;1.40;;;;;4.70;94250.00;;;;7400079;19;20603;-79
2023/03/20 00:03:50;;;;;;;1.77;0.87;;;;;4.60;94253.00;;;;7397997;19;20595;-77
2023/03/20 00:06:33;;;;;;;1.47;1.20;;;;;4.60;94254.00;;;;7399309;19;20172;-78
2023/03/20 00:09:01;;;;;;;1.37;1.27;;;;;4.70;94258.00;;;;7396706;19;20161;-78
2023/03/20 00:11:43;;;;;;;1.23;1.10;;;;;4.70;94255.00;;;;7402030;19;20133;-80
2023/03/20 00:14:21;;;;;;;1.43;1.20;;;;;4.70;94247.00;;;;7397051;19;20478;-78
2023/03/20 00:16:55;;;;;;;1.83;1.00;;;;;4.80;94252.00;;;;7401437;19;20151;-79
2023/03/20 00:19:29;;;;;;;1.23;1.13;;;;;4.80;94261.00;;;;7400716;19;20166;-79
2023/03/20 00:22:03;;;;;;;1.40;1.20;;;;;4.90;94256.00;;;;7402211;19;20148;-80
2023/03/20 00:24:37;;;;;;;1.20;1.10;;;;;4.90;94255.00;;;;7389181;19;20474;-78
2023/03/20 00:27:05;;;;;;;1.00;1.00;;;;;4.90;94259.00;;;;7395528;19;20125;-80
2023/03/20 00:29:40;;;;;;;1.87;0.90;;;;;4.90;94268.00;;;;7399495;19;20586;-79
2023/03/20 00:32:17;;;;;;;1.67;1.10;;;;;5.00;94268.00;;;;7401111;19;20144;-81
2023/03/20 00:34:53;;;;;;;1.60;1.13;;;;;5.00;94253.00;;;;7400368;19;20638;-79
2023/03/20 00:37:22;;;;;;;1.43;0.90;;;;;5.10;94273.00;;;;7399985;19;20158;-78
2023/03/20 00:39:56;;;;;;;1.30;0.93;;;;;5.30;94266.00;;;;7400903;19;20133;-81
2023/03/20 00:42:24;;;;;;;1.20;1.00;;;;;5.30;94266.00;;;;7398959;19;20125;-79
2023/03/20 00:44:59;;;;;;;1.00;0.80;;;;;5.40;94258.00;;;;7399579;19;20527;-80
2023/03/20 00:47:40;;;;;;;2.27;0.70;;;;;5.30;94253.00;;;;7400133;19;20129;-77
2023/03/20 00:50:17;;;;;;;1.57;1.10;;;;;5.50;94252.00;;;;7400639;19;20131;-77
2023/03/20 00:52:44;;;;;;;0.93;0.90;;;;;5.60;94256.00;;;;7398362;19;20137;-75
2023/03/20 00:55:22;;;;;;;0.83;0.83;;;;;5.70;94258.00;;;;7399924;19;20165;-76
2023/03/20 00:57:59;;;;;;;1.27;0.70;;;;;5.70;94248.00;;;;7398213;19;20160;-76
2023/03/20 01:00:44;;;;;;;0.90;0.90;;;;;5.70;94255.00;;;;7397650;19;20136;-77
2023/03/20 01:03:22;;;;;;;0.80;0.80;;;;;5.80;94251.00;;;;7397264;19;20176;-75
2023/03/20 01:06:03;;;;;;;0.60;0.60;;;;;5.70;94252.00;;;;7398196;19;20472;-78
2023/03/20 01:08:37;;;;;;;0.83;0.73;;;;;5.80;94249.00;;;;7396903;19;20129;-77
2023/03/20 01:11:22;;;;;;;0.80;0.80;;;;;5.70;94250.00;;;;7399803;19;20136;-75
2023/03/20 01:13:57;;;;;;;0.60;0.60;;;;;5.60;94253.00;;;;7399503;19;20139;-76
2023/03/20 01:16:31;;;;;;;0.73;0.73;;;;;5.50;94254.00;;;;7397811;19;20147;-77
2023/03/20 01:19:05;;;;;;;0.83;0.83;;;;;5.60;94255.00;;;;7398367;19;20137;-76
2023/03/20 01:21:40;;;;;;;2.43;0.93;;;;;5.70;94253.00;;;;7398898;19;20158;-77
2023/03/20 01:24:08;;;;;;;2.10;1.50;;;;;5.60;94250.00;;;;7394957;19;20496;-77
2023/03/20 01:26:45;;;;;;;3.13;1.70;;;;;5.60;94248.00;;;;7396656;19;20195;-74
2023/03/20 01:29:26;;;;;;;2.67;1.80;;;;;5.70;94249.00;;;;7396929;19;20137;-78
2023/03/20 01:32:00;;;;;;;2.70;1.83;;;;;5.60;94248.00;;;;7397410;19;20140;-74
2023/03/20 01:34:27;;;;;;;2.97;1.87;;;;;5.60;94259.00;;;;7399448;19;20121;-75
2023/03/20 01:37:03;;;;;;;2.63;2.10;;;;;5.70;94256.00;;;;7398743;19;20124;-74
2023/03/20 01:39:35;;;;;;;3.47;1.90;;;;;5.70;94247.00;;;;7399283;19;20588;-76
2023/03/20 01:42:14;;;;;;;4.37;1.93;;;;;5.80;94254.00;;;;7399094;19;20174;-75
2023/03/20 01:44:44;;;;;;;2.93;2.23;;;;;5.70;94257.00;;;;7396636;19;20169;-76
2023/03/20 01:47:22;;;;;;;5.93;2.50;;;;;5.70;94257.00;;;;7395272;19;20599;-74
2023/03/20 01:50:29;;;;;;;4.27;2.17;;;;;5.60;94259.00;;;;7398238;19;20133;-77
2023/03/20 01:53:21;;;;;;;3.13;2.03;;;;;5.60;94256.00;;;;7397371;19;20525;-76
2023/03/20 01:55:53;;;;;;;3.87;2.50;;;;;5.50;94263.00;;;;7398450;19;20133;-76
2023/03/20 01:58:31;;;;;;;4.07;2.30;;;;;5.50;94266.00;;;;7398689;19;20136;-77
2023/03/20 02:00:59;;;;;;;3.93;2.63;;;;;5.50;94266.00;;;;7397230;19;20154;-77
2023/03/20 02:03:26;;;;;;;5.33;2.37;;;;;5.30;94272.00;;;;7395419;19;20137;-76
2023/03/20 02:06:07;;;;;;;3.20;2.30;;;;;5.30;94269.00;;;;7397239;19;20172;-77
2023/03/20 02:08:48;;;;;;;3.30;2.07;;;;;5.30;94271.00;;;;7397897;19;20588;-77
2023/03/20 02:11:17;;;;;;;3.07;2.40;;;;;5.30;94268.00;;;;7395681;19;20491;-76
2023/03/20 02:14:04;;;;;;;3.00;1.97;;;;;5.40;94268.00;;;;7397937;19;20161;-76
2023/03/20 02:16:31;;;;;;;3.33;2.43;;;;;5.50;94272.00;;;;7396501;19;20670;-78
2023/03/20 02:19:09;;;;;;;4.67;2.40;;;;;5.30;94273.00;;;;7400740;19;20614;-75
2023/03/20 02:22:21;;;;;;;4.67;2.50;;;;;5.30;94275.00;;;;7405108;19;20211;-76
2023/03/20 02:25:14;;;;;;;3.57;2.03;;;;;5.40;94271.00;;;;7400571;19;20152;-77
2023/03/20 02:27:58;;;;;;;3.77;2.37;;;;;5.30;94270.00;;;;7400550;19;20140;-77
2023/03/20 02:30:47;;;;;;;3.70;2.03;;;;;5.20;94269.00;;;;7402931;19;20615;-77
2023/03/20 02:34:08;;;;;;;2.60;1.93;;;;;5.10;94273.00;;;;7405309;19;20145;-77
2023/03/20 02:37:01;;;;;;;3.03;2.03;;;;;5.00;94274.00;;;;7403487;19;20135;-77
2023/03/20 02:40:17;;;;;;;2.33;2.13;;;;;5.20;94275.00;;;;7402982;19;20129;-76
2023/03/20 02:43:09;;;;;;;2.87;2.00;;;;;5.00;94277.00;;;;7401838;19;20153;-77
2023/03/20 02:46:11;;;;;;;5.07;2.40;;;;;4.80;94277.00;;;;7401830;19;20129;-76
2023/03/20 02:49:17;;;;;;;4.07;2.00;;;;;4.90;94274.00;;;;7404864;19;20132;-77
2023/03/20 02:52:06;;;;;;;2.90;2.23;;;;;4.80;94197.00;;;;7403121;19;20148;-75
2023/03/20 02:54:49;;;;;;;3.03;2.10;;;;;4.70;94275.00;;;;7402460;19;20129;-76
2023/03/20 02:57:50;;;;;;;2.83;2.10;;;;;4.70;94280.00;;;;7402613;19;20153;-77
2023/03/20 03:01:00;;;;;;;2.70;1.93;;;;;4.70;94277.00;;;;7401601;19;20171;-76
2023/03/20 03:03:41;;;;;;;3.60;2.27;;;;;4.70;94275.00;;;;7399546;19;20172;-75
2023/03/20 03:06:26;;;;;;;6.93;2.20;;;;;4.60;94276.00;;;;7402883;19;20172;-77
2023/03/20 03:09:19;;;;;;;2.03;1.63;;;;;4.60;94283.00;;;;7403709;19;20141;-75
2023/03/20 03:11:56;;;;;;;2.80;1.93;;;;;4.70;94280.00;;;;7404668;19;20595;-74
2023/03/20 03:14:41;;;;;;;2.50;1.53;;;;;4.60;94282.00;;;;7403203;19;20615;-75
2023/03/20 03:17:22;;;;;;;5.10;1.70;;;;;4.60;94286.00;;;;7403657;19;20125;-76
2023/03/20 03:20:01;;;;;;;2.83;1.93;;;;;4.50;94292.00;;;;7404010;19;20116;-77
2023/03/20 03:22:30;;;;;;;2.93;1.90;;;;;4.50;94286.00;;;;7402919;19;20133;-76
2023/03/20 03:25:05;;;;;;;2.67;1.80;;;;;4.50;94275.00;;;;7397980;19;20163;-77
2023/03/20 03:27:42;;;;;;;2.10;1.57;;;;;4.60;94280.00;;;;7401357;19;20204;-75
2023/03/20 03:30:27;;;;;;;2.93;1.80;;;;;4.60;94290.00;;;;7400312;19;20614;-75
2023/03/20 03:33:27;;;;;;;5.70;2.13;;;;;4.60;94283.00;;;;7403031;19;20494;-79
2023/03/20 03:36:29;;;;;;;2.63;1.70;;;;;4.50;94281.00;;;;7402475;19;20135;-76
2023/03/20 03:39:09;;;;;;;3.20;2.00;;;;;4.40;94287.00;;;;7401608;19;20137;-76
2023/03/20 03:41:56;;;;;;;3.03;1.63;;;;;4.20;94291.00;;;;7400867;19;20518;-75
2023/03/20 03:44:36;;;;;;;2.57;1.80;;;;;4.30;94287.00;;;;7403686;19;20141;-76
2023/03/20 03:47:20;;;;;;;2.53;1.80;;;;;4.30;94287.00;;;;7402030;19;20155;-77
2023/03/20 03:50:19;;;;;;;2.83;2.10;;;;;4.40;94298.00;;;;7402098;19;20608;-74
2023/03/20 03:52:58;;;;;;;3.37;1.93;;;;;4.40;94295.00;;;;7400833;19;20496;-75
2023/03/20 03:55:38;;;;;;;3.60;2.17;;;;;4.20;94298.00;;;;7402490;19;20129;-77
2023/03/20 03:58:22;;;;;;;2.70;2.10;;;;;4.30;94304.00;;;;7402085;19;20137;-77
2023/03/20 04:00:51;;;;;;;4.90;2.23;;;;;4.30;94301.00;;;;7401346;19;20159;-77
2023/03/20 04:03:35;;;;;;;3.20;2.10;;;;;4.20;94301.00;;;;7399833;19;20164;-77
2023/03/20 04:06:05;;;;;;;3.67;2.43;;;;;4.30;94305.00;;;;7400208;19;20525;-75
2023/03/20 04:08:47;;;;;;;3.70;2.33;;;;;4.30;94301.00;;;;7401009;19;20144;-77
2023/03/20 04:11:23;;;;;;;3.67;2.47;;;;;4.40;94293.00;;;;7395855;19;20224;-74
2023/03/20 04:13:57;;;;;;;3.03;2.33;;;;;4.40;94289.00;;;;7399603;19;20614;-77
2023/03/20 04:16:31;;;;;;;2.90;2.40;;;;;4.50;94285.00;;;;7399546;19;20136;-75
2023/03/20 04:18:58;;;;;;;3.77;2.60;;;;;4.30;94283.00;;;;7401301;19;20140;-76
2023/03/20 04:21:32;;;;;;;4.37;2.43;;;;;4.40;94285.00;;;;7399231;19;20171;-75
2023/03/20 04:24:00;;;;;;;4.10;2.73;;;;;4.30;94287.00;;;;7396319;19;20165;-74
2023/03/20 04:26:34;;;;;;;4.17;2.77;;;;;4.40;94294.00;;;;7398431;19;20129;-76
2023/03/20 04:29:02;;;;;;;3.03;2.50;;;;;4.50;94296.00;;;;7399252;19;20149;-74
2023/03/20 04:31:37;;;;;;;3.90;2.63;;;;;4.50;94300.00;;;;7400968;19;20212;-74
2023/03/20 04:34:07;;;;;;;3.30;2.50;;;;;4.50;94297.00;;;;7401178;19;20128;-77
2023/03/20 04:36:40;;;;;;;4.13;2.67;;;;;4.40;94308.00;;;;7399063;19;20618;-76
2023/03/20 04:39:10;;;;;;;3.10;2.17;;;;;4.60;94305.00;;;;7401139;19;20537;-74
2023/03/20 04:41:37;;;;;;;3.83;2.50;;;;;4.60;94306.00;;;;7397669;19;20150;-77
2023/03/20 04:44:12;;;;;;;3.70;2.30;;;;;4.70;94317.00;;;;7401046;19;20478;-77
2023/03/20 04:46:39;;;;;;;3.33;2.70;;;;;4.90;94304.00;;;;7400333;19;20137;-78
2023/03/20 04:49:15;;;;;;;3.20;2.60;;;;;4.90;94304.00;;;;7399481;19;20140;-75
2023/03/20 04:51:50;;;;;;;3.87;2.60;;;;;4.90;94313.00;;;;7400364;19;20128;-77
2023/03/20 04:54:17;;;;;;;3.20;2.60;;;;;5.10;94304.00;;;;7400610;19;20132;-77
2023/03/20 04:56:52;;;;;;;3.70;2.50;;;;;5.00;94318.00;;;;7398188;19;20504;-78
2023/03/20 04:59:19;;;;;;;3.43;2.80;;;;;5.10;94317.00;;;;7398374;19;20209;-76
2023/03/20 05:01:54;;;;;;;4.10;2.97;;;;;5.30;94317.00;;;;7399029;19;20172;-75
2023/03/20 05:04:21;;;;;;;4.37;2.80;;;;;5.30;94312.00;;;;7400171;19;20144;-77
2023/03/20 05:07:10;;;;;;;4.50;2.70;;;;;5.40;94316.00;;;;7397301;19;20167;-75
2023/03/20 05:09:44;;;;;;;4.10;3.03;;;;;5.20;94315.00;;;;7399903;19;20208;-79
2023/03/20 05:12:18;;;;;;;4.00;2.97;;;;;5.30;94307.00;;;;7399993;19;20611;-77
2023/03/20 05:14:46;;;;;;;4.20;2.70;;;;;5.40;94311.00;;;;7397029;19;20141;-77
2023/03/20 05:17:22;;;;;;;3.60;2.87;;;;;5.40;94308.00;;;;7399232;19;20128;-76
2023/03/20 05:19:49;;;;;;;3.30;2.77;;;;;5.40;94306.00;;;;7398271;19;20479;-75
2023/03/20 05:22:23;;;;;;;3.80;2.40;;;;;5.50;94301.00;;;;7397738;19;20200;-77
2023/03/20 05:24:51;;;;;;;3.43;2.73;;;;;5.50;94312.00;;;;7394845;19;20120;-76
2023/03/20 05:27:25;;;;;;;2.50;2.23;;;;;5.40;94305.00;;;;7399430;19;20152;-76
2023/03/20 05:30:00;;;;;;;2.57;2.30;;;;;5.50;94309.00;;;;7397447;19;20145;-78
2023/03/20 05:32:35;;;;;;;3.53;2.37;;;;;5.40;94314.00;;;;7399650;19;20497;-76
2023/03/20 05:35:03;;;;;;;2.90;2.30;;;;;5.40;94321.00;;;;7398485;19;20149;-76
2023/03/20 05:37:38;;;;;;;3.57;2.23;;;;;5.30;94322.00;;;;7398909;19;20457;-77
2023/03/20 05:40:06;;;;;;;3.00;2.27;;;;;5.50;94330.00;;;;7397851;19;20140;-76
2023/03/20 05:42:40;;;;;;;3.00;2.37;;;;;5.50;94330.00;;;;7398477;19;20147;-76
2023/03/20 05:45:08;;;;;;;2.90;2.23;;;;;5.60;94342.00;;;;7397265;19;20475;-76
2023/03/20 05:47:42;;;;;;;3.17;2.60;;;;;5.70;94332.00;;;;7396319;19;20164;-75
2023/03/20 05:50:11;;;;;;;2.83;2.10;;;;;5.60;94344.00;;;;7399639;19;20131;-74
2023/03/20 05:52:47;;;;;;;5.03;2.10;;;;;5.60;94339.00;;;;7399112;19;20168;-74
2023/03/20 05:55:21;;;;;;;2.67;2.03;;;;;5.70;94343.00;;;;7413816;19;20595;-74
2023/03/20 05:57:49;;;;;;;2.33;2.00;;;;;5.80;94338.00;;;;7413160;19;20125;-75
2023/03/20 06:00:24;;;;;;;2.87;1.80;;;;;5.70;94334.00;;;;7411378;19;20150;-76
2023/03/20 06:02:58;;;;;;;2.50;2.03;;;;;5.80;94345.00;;;;7408502;19;20512;-75
2023/03/20 06:05:26;;;;;;;1.90;1.70;;;;;5.70;94352.00;;;;7408583;19;20168;-75
2023/03/20 06:08:08;;;;;;;1.60;1.50;;;;;5.90;94337.00;;;;7405224;19;20499;-74
2023/03/20 06:10:35;;;;;;;1.77;1.50;;;;;5.90;94347.00;;;;7410683;19;20144;-72
2023/03/20 06:13:12;;;;;;;2.20;1.63;;;;;5.80;94347.00;;;;7410966;19;20746;-73
2023/03/20 06:15:40;;;;;;;2.20;2.00;;;;;5.80;94353.00;;;;7413512;19;20133;-73
2023/03/20 06:18:14;;;;;;;1.50;1.40;;;;;6.10;94353.00;;;;7412635;19;20133;-73
2023/03/20 06:20:56;;;;;;;1.87;1.60;;;;;6.30;94345.00;;;;7411651;19;20138;-72
2023/03/20 06:23:31;;;;;;;2.50;2.00;;;;;6.30;94336.00;;;;7411687;19;20143;-74
2023/03/20 06:25:58;;;;;;;3.23;2.07;;;;;6.50;94332.00;;;;7407338;19;20716;-72
2023/03/20 06:28:33;;;;;;;2.30;2.10;;;;;6.50;94325.00;;;;7409167;19;20483;-73
2023/03/20 06:31:08;;;;;;;3.33;2.80;;;;;6.80;94333.00;;;;7412704;19;20139;-73
2023/03/20 06:33:44;;;;;;;4.30;2.70;;;;;7.00;94330.00;;;;7412570;19;20430;-75
2023/03/20 06:36:12;;;;;;;4.37;3.13;;;;;7.10;94332.00;;;;7412771;19;20471;-75
2023/03/20 06:38:46;;;;;;;4.80;3.30;;;;;7.10;94329.00;;;;7410248;19;20542;-75
2023/03/20 06:41:15;;;;;;;3.10;2.70;;;;;7.40;94323.00;;;;7412968;19;20129;-75
2023/03/20 06:44:02;;;;;;;3.03;2.73;;;;;7.30;94327.00;;;;7410129;19;20160;-75
2023/03/20 06:46:30;;;;;;;4.50;2.80;;;;;7.70;94326.00;;;;7413909;19;20158;-76
2023/03/20 06:49:05;;;;;;;3.67;3.13;;;;;7.90;94334.00;;;;7409286;19;20163;-75
2023/03/20 06:51:41;;;;;;;4.60;3.43;;;;;7.60;94342.00;;;;7413383;19;20141;-76
2023/03/20 06:54:09;;;;;;;4.53;3.63;;;;;7.60;94340.00;;;;7412192;19;20133;-76
2023/03/20 06:56:43;;;;;;;3.50;2.90;;;;;7.90;94351.00;;;;7412503;19;20505;-76
2023/03/20 06:59:12;;;;;;;3.30;3.00;;;;;7.70;94363.00;;;;7411797;19;20599;-74
2023/03/20 07:01:46;;;;;;;3.07;2.70;;;;;7.50;94371.00;;;;7411582;19;20146;-75
2023/03/20 07:04:16;;;;;;;3.10;2.80;;;;;7.40;94378.00;;;;7410459;19;20150;-76
2023/03/20 07:07:04;;;;;;;3.23;2.77;;;;;7.10;94378.00;;;;7402791;19;20184;-75
2023/03/20 07:09:39;;;;;;;3.27;2.73;;;;;7.00;94376.00;;;;7403183;19;20144;-75
2023/03/20 07:12:15;;;;;;;3.13;2.70;;;;;7.10;94377.00;;;;7403202;19;20156;-75
2023/03/20 07:14:44;;;;;;;3.80;2.60;;;;;7.00;94381.00;;;;7404667;19;20145;-74
2023/03/20 07:17:19;;;;;;;3.27;2.73;;;;;6.90;94376.00;;;;7404321;19;20148;-74
2023/03/20 07:19:47;;;;;;;3.63;2.90;;;;;7.20;94389.00;;;;7403306;19;20200;-77
2023/03/20 07:22:24;;;;;;;4.23;2.60;;;;;7.30;94383.00;;;;7404149;19;20143;-75
2023/03/20 07:24:58;;;;;;;3.47;2.97;;;;;7.70;94385.00;;;;7399621;19;20141;-75
2023/03/20 07:27:33;;;;;;;3.57;2.77;;;;;7.70;94383.00;;;;7402295;19;20552;-74
2023/03/20 07:30:09;;;;;;;2.87;2.53;;;;;7.60;94373.00;;;;7402854;19;20151;-74
2023/03/20 07:32:52;;;;;;;2.87;2.60;;;;;7.90;94382.00;;;;7401086;19;20649;-75
2023/03/20 07:35:34;;;;;;;4.97;2.90;;;;;7.90;94381.00;;;;7402788;19;20133;-76
2023/03/20 07:38:09;;;;;;;3.80;2.70;;;;;8.00;94375.00;;;;7403727;19;20133;-74
2023/03/20 07:40:36;;;;;;;3.30;2.70;;;;;7.90;94380.00;;;;7402819;19;20137;-76
2023/03/20 07:43:11;;;;;;;4.67;2.50;;;;;7.80;94390.00;;;;7402978;19;20128;-82
2023/03/20 07:45:46;;;;;;;2.63;2.27;;;;;8.10;94380.00;;;;7402353;19;20480;-75
2023/03/20 07:48:21;;;;;;;3.33;2.43;;;;;8.20;94368.00;;;;7400176;19;20135;-75
2023/03/20 07:50:49;;;;;;;3.60;2.80;;;;;8.20;94374.00;;;;7402045;19;20145;-75
2023/03/20 07:53:23;;;;;;;3.43;2.80;;;;;8.40;94377.00;;;;7403151;19;20610;-76
2023/03/20 07:55:57;;;;;;;5.43;2.93;;;;;8.50;94380.00;;;;7401523;19;20148;-75
2023/03/20 07:58:25;;;;;;;4.57;3.50;;;;;8.20;94380.00;;;;7401607;19;20591;-76
2023/03/20 08:00:59;;;;;;;5.00;3.53;;;;;8.30;94378.00;;;;7401088;19;20164;-75
2023/03/20 08:03:27;;;;;;;4.37;3.27;;;;;8.10;94380.00;;;;7401548;19;20500;-75
2023/03/20 08:05:56;;;;;;;4.53;3.37;;;;;8.20;94383.00;;;;7400986;19;20505;-74
2023/03/20 08:08:37;;;;;;;4.87;3.40;;;;;8.30;94370.00;;;;7399894;19;20215;-75
2023/03/20 08:11:05;;;;;;;5.90;3.63;;;;;8.00;94382.00;;;;7397825;19;20129;-73
2023/03/20 08:13:40;;;;;;;6.90;3.40;;;;;8.40;94373.00;;;;7400513;19;20224;-74
2023/03/20 08:16:08;;;;;;;5.10;4.10;;;;;8.70;94366.00;;;;7399683;19;20188;-73
2023/03/20 08:18:41;;;;;;;5.07;3.70;;;;;8.50;94375.00;;;;7400496;19;20149;-73
2023/03/20 08:21:10;;;;;;;6.37;3.83;;;;;8.40;94375.00;;;;7400533;19;20137;-73
2023/03/20 08:23:44;;;;;;;5.57;3.87;;;;;8.70;94368.00;;;;7397052;19;20133;-73
2023/03/20 08:26:13;;;;;;;4.90;3.93;;;;;8.90;94374.00;;;;7399790;19;20192;-74
2023/03/20 08:28:47;;;;;;;5.93;4.37;;;;;8.80;94371.00;;;;7399265;19;20475;-74
2023/03/20 08:31:21;;;;;;;5.77;4.60;;;;;8.80;94374.00;;;;7399347;19;20136;-73
2023/03/20 08:33:56;;;;;;;5.03;3.93;;;;;9.10;94369.00;;;;7400014;19;20216;-73
2023/03/20 08:36:24;;;;;;;5.77;4.30;;;;;9.90;94370.00;;;;7399766;19;20507;-74
2023/03/20 08:38:59;;;;;;;6.57;4.20;;;;;9.40;94375.00;;;;7399455;19;20151;-73
2023/03/20 08:41:36;;;;;;;6.20;4.10;;;;;9.70;94372.00;;;;7401116;19;20139;-74
2023/03/20 08:44:05;;;;;;;4.97;3.60;;;;;9.80;94380.00;;;;7397579;19;20172;-76
2023/03/20 08:46:39;;;;;;;4.40;3.47;;;;;9.60;94380.00;;;;7398970;19;20139;-76
2023/03/20 08:49:14;;;;;;;4.73;4.07;;;;;10.20;94379.00;;;;7397464;19;20148;-76
2023/03/20 08:51:48;;;;;;;5.17;3.60;;;;;10.50;94380.00;;;;7398874;19;20163;-76
2023/03/20 08:54:17;;;;;;;5.18;3.47;;;;;10.70;94368.00;;;;7398316;19;20506;-74
2023/03/20 08:56:53;;;;;;;3.80;3.17;;;;;11.20;94380.00;;;;7399308;19;20475;-76
2023/03/20 08:59:28;;;;;;;4.55;3.47;;;;;11.20;94378.00;;;;7398697;19;20151;-75
2023/03/20 09:02:03;;;;;;;3.38;2.92;;;;;11.40;94371.00;;;;7394790;19;20187;-75
2023/03/20 09:04:37;;;;;;;3.95;2.90;;;;;12.30;94374.00;;;;7398528;19;20132;-75
2023/03/20 09:07:12;;;;;;;4.05;3.00;;;;;12.10;94378.00;;;;7397855;19;20559;-75
2023/03/20 09:09:47;;;;;;;3.60;2.72;;;;;12.20;94365.00;;;;7397173;19;20124;-75
2023/03/20 09:12:21;;;;;;;2.88;2.50;;;;;12.30;94370.00;;;;7398390;19;20647;-74
2023/03/20 09:14:48;;;;;;;2.60;2.40;;;;;11.30;94388.00;;;;7398223;19;20164;-75
2023/03/20 09:17:23;;;;;;;3.17;2.58;;;;;11.30;94390.00;;;;7400202;19;20493;-75
2023/03/20 09:19:57;;;;;;;3.05;2.45;;;;;11.00;94386.00;;;;7400122;19;20128;-75
2023/03/20 09:22:25;;;;;;;3.00;2.33;;;;;12.20;94377.00;;;;7399250;19;20436;-75
2023/03/20 09:24:52;;;;;;;2.85;2.30;;;;;13.50;94372.00;;;;7394191;19;20169;-76
2023/03/20 09:27:27;;;;;;;2.85;2.25;;;;;14.80;94370.00;;;;7397039;19;20143;-74
2023/03/20 09:30:04;;;;;;;2.60;2.25;;;;;14.80;94366.00;;;;7398250;19;20132;-75
2023/03/20 09:32:40;;;;;;;3.70;2.85;;;;;14.90;94386.00;;;;7397947;19;20152;-74
2023/03/20 09:35:08;;;;;;;3.05;2.40;;;;;14.60;94368.00;;;;7400009;19;20536;-73
2023/03/20 09:37:42;;;;;;;2.53;2.08;;;;;15.00;94390.00;;;;7399303;19;20149;-72
2023/03/20 09:40:38;;;;;;;2.60;2.33;;;;;13.40;94397.00;;;;7399301;19;20132;-75
2023/03/20 09:43:32;;;;;;;2.30;2.10;;;;;12.70;94402.00;;;;7398009;19;20666;-74
2023/03/20 09:46:07;;;;;;;2.88;2.00;;;;;12.10;94408.00;;;;7397394;19;20129;-74
2023/03/20 09:48:50;;;;;;;3.25;2.50;;;;;12.40;94420.00;;;;7397811;19;20152;-75
2023/03/20 09:51:31;;;;;;;2.50;1.90;;;;;10.70;94421.00;;;;7397843;19;20162;-75
2023/03/20 09:54:16;;;;;;;2.63;2.10;;;;;10.80;94428.00;;;;7398169;19;20475;-75
2023/03/20 09:56:44;;;;;;;3.38;2.30;;;;;10.40;94438.00;;;;7397544;19;20140;-75
2023/03/20 09:59:19;;;;;;;6.10;2.80;;;;;10.70;94416.00;;;;7398740;19;20152;-75
2023/03/20 10:01:52;;;;;;;3.13;2.28;;;;;9.80;94424.00;;;;7395384;19;20151;-75
2023/03/20 10:04:29;;;;;;;2.90;2.38;;;;;9.90;94427.00;;;;7397642;19;20121;-74
2023/03/20 10:07:03;;;;;;;2.88;2.22;;;;;9.90;94439.00;;;;7398396;19;20144;-74
2023/03/20 10:09:38;;;;;;;5.13;2.30;;;;;10.40;94433.00;;;;7396034;19;20470;-75
2023/03/20 10:12:39;;;;;;;2.63;1.98;;;;;10.70;94441.00;;;;7396414;19;20132;-76
2023/03/20 10:15:36;;;;;;;3.05;2.38;;;;;11.10;94432.00;;;;7397358;19;20615;-75
2023/03/20 10:18:23;;;;;;;2.60;2.28;;;;;10.70;94427.00;;;;7398403;19;20591;-74
2023/03/20 10:21:03;;;;;;;2.72;2.15;;;;;10.90;94435.00;;;;7396551;19;20140;-76
2023/03/20 10:24:00;;;;;;;3.05;2.00;;;;;10.10;94444.00;;;;7395608;19;20157;-75
2023/03/20 10:26:37;;;;;;;2.75;2.15;;;;;10.20;94438.00;;;;7394873;19;20142;-75
2023/03/20 10:29:26;;;;;;;3.15;2.40;;;;;10.60;94412.00;;;;7394984;19;20160;-76
2023/03/20 10:32:40;;;;;;;2.70;2.00;;;;;12.30;94408.00;;;;7395719;19;20514;-75
2023/03/20 10:36:01;;;;;;;2.42;2.22;;;;;11.70;94433.00;;;;7391185;19;20151;-75
2023/03/20 10:38:41;;;;;;;2.33;2.13;;;;;11.30;94432.00;;;;7395731;19;20135;-74
2023/03/20 10:41:22;;;;;;;3.15;2.30;;;;;10.20;94432.00;;;;7401591;19;20167;-75
2023/03/20 10:43:58;;;;;;;2.58;2.15;;;;;10.40;94426.00;;;;7403899;19;20133;-76
2023/03/20 10:46:34;;;;;;;2.20;2.00;;;;;10.00;94437.00;;;;7403421;19;20136;-76
2023/03/20 10:49:18;;;;;;;2.53;2.13;;;;;10.40;94427.00;;;;7401967;19;20472;-76
2023/03/20 10:51:45;;;;;;;2.28;1.80;;;;;10.50;94422.00;;;;7402656;19;20136;-75
2023/03/20 10:54:29;;;;;;;1.63;1.52;;;;;10.20;94422.00;;;;7403475;19;20155;-75
2023/03/20 10:57:06;;;;;;;1.60;1.50;;;;;10.70;94421.00;;;;7404076;19;20132;-75
2023/03/20 10:59:47;;;;;;;4.50;1.90;;;;;10.60;94423.00;;;;7403309;19;20499;-74
2023/03/20 11:02:29;;;;;;;2.53;1.80;;;;;11.20;94419.00;;;;7399763;19;20550;-75
2023/03/20 11:05:19;;;;;;;2.95;1.80;;;;;11.30;94423.00;;;;7402368;19;20140;-73
2023/03/20 11:08:05;;;;;;;3.13;1.90;;;;;10.60;94415.00;;;;7401848;19;20167;-75
2023/03/20 11:10:41;;;;;;;2.03;1.58;;;;;10.40;94419.00;;;;7403110;19;20133;-75
2023/03/20 11:13:28;;;;;;;2.20;2.00;;;;;10.70;94408.00;;;;7404615;19;20193;-76
2023/03/20 11:15:56;;;;;;;5.50;2.10;;;;;12.00;94395.00;;;;7403033;19;20136;-75
2023/03/20 11:18:30;;;;;;;2.67;2.22;;;;;11.90;94407.00;;;;7401629;19;20614;-75
2023/03/20 11:21:00;;;;;;;2.35;2.10;;;;;11.20;94413.00;;;;7403112;19;20140;-75
2023/03/20 11:23:34;;;;;;;2.60;2.15;;;;;11.50;94405.00;;;;7402572;19;20140;-74
2023/03/20 11:26:06;;;;;;;2.65;2.08;;;;;10.90;94421.00;;;;7398323;19;20635;-76
2023/03/20 11:28:54;;;;;;;2.38;2.17;;;;;11.90;94412.00;;;;7401603;19;20121;-75
2023/03/20 11:31:39;;;;;;;4.50;2.10;;;;;10.80;94420.00;;;;7402253;19;20140;-74
2023/03/20 11:34:14;;;;;;;3.80;2.10;;;;;11.80;94407.00;;;;7400195;19;20147;-75
2023/03/20 11:37:00;;;;;;;2.63;2.20;;;;;12.00;94407.00;;;;7402382;19;20201;-75
2023/03/20 11:39:38;;;;;;;2.78;1.95;;;;;12.60;94409.00;;;;7402819;19;20471;-75
2023/03/20 11:42:22;;;;;;;3.50;2.40;;;;;12.40;94408.00;;;;7401923;19;20156;-74
2023/03/20 11:45:14;;;;;;;1.98;1.67;;;;;13.10;94383.00;;;;7404023;19;20133;-73
2023/03/20 11:47:56;;;;;;;3.15;1.95;;;;;15.50;94370.00;;;;7403296;19;20133;-75
2023/03/20 11:50:35;;;;;;;2.22;1.80;;;;;16.00;94352.00;;;;7401179;19;20597;-75
2023/03/20 11:53:28;;;;;;;2.20;1.70;;;;;15.90;94370.00;;;;7402250;19;20691;-74
2023/03/20 11:56:10;;;;;;;2.03;1.58;;;;;18.60;94380.00;;;;7402027;19;20503;-74
2023/03/20 11:59:00;;;;;;;2.85;1.67;;;;;16.10;94392.00;;;;7401089;19;20508;-73
2023/03/20 12:01:45;;;;;;;3.50;1.70;;;;;14.60;94391.00;;;;7399497;19;20125;-75
2023/03/20 12:04:41;;;;;;;1.88;1.70;;;;;13.50;94390.00;;;;7402159;19;20136;-74
2023/03/20 12:07:52;;;;;;;1.90;1.70;;;;;13.80;94388.00;;;;7400891;19;20618;-74
2023/03/20 12:10:33;;;;;;;1.98;1.70;;;;;13.60;94390.00;;;;7398465;19;20140;-76
2023/03/20 12:13:25;;;;;;;2.58;1.88;;;;;13.70;94369.00;;;;7396984;19;20141;-77
2023/03/20 12:16:10;;;;;;;1.73;1.63;;;;;15.20;94365.00;;;;7402739;19;20189;-73
2023/03/20 12:18:49;;;;;;;1.63;1.48;;;;;15.40;94390.00;;;;7401556;19;20129;-72
2023/03/20 12:21:38;;;;;;;6.05;2.03;;;;;14.30;94371.00;;;;7401384;19;20153;-75
2023/03/20 12:24:46;;;;;;;3.33;2.25;;;;;13.10;94398.00;;;;7397959;19;20117;-75
2023/03/20 12:27:37;;;;;;;3.25;2.40;;;;;13.00;94385.00;;;;7400424;19;20144;-75
2023/03/20 12:30:20;;;;;;;2.67;2.45;;;;;13.80;94375.00;;;;7400758;19;20599;-75
2023/03/20 12:33:13;;;;;;;2.67;2.20;;;;;14.50;94381.00;;;;7401493;19;20590;-74
2023/03/20 12:35:51;;;;;;;2.10;1.90;;;;;13.90;94379.00;;;;7401612;19;20142;-74
2023/03/20 12:38:33;;;;;;;2.95;2.50;;;;;13.80;94385.00;;;;7401437;19;20128;-73
2023/03/20 12:41:09;;;;;;;2.92;1.88;;;;;13.70;94372.00;;;;7400303;19;20134;-74
2023/03/20 12:43:43;;;;;;;2.28;1.70;;;;;13.60;94390.00;;;;7401865;19;20132;-75
2023/03/20 12:46:42;;;;;;;2.28;1.80;;;;;12.60;94399.00;;;;7399825;19;20129;-74
2023/03/20 12:49:29;;;;;;;1.92;1.58;;;;;12.30;94391.00;;;;7398165;19;20137;-73
2023/03/20 12:52:30;;;;;;;4.18;1.70;;;;;12.20;94387.00;;;;7400569;19;20172;-80
2023/03/20 12:55:12;;;;;;;2.75;1.55;;;;;12.00;94387.00;;;;7400686;19;20204;-73
2023/03/20 12:57:44;;;;;;;1.23;1.13;;;;;12.00;94363.00;;;;7400025;19;20137;-73
2023/03/20 13:00:33;;;;;;;1.45;1.35;;;;;12.80;94362.00;;;;7400452;19;20540;-74
2023/03/20 13:03:26;;;;;;;2.10;1.63;;;;;13.70;94369.00;;;;7394928;19;20671;-75
2023/03/20 13:06:03;;;;;;;2.30;1.80;;;;;12.10;94374.00;;;;7399247;19;20595;-74
2023/03/20 13:09:06;;;;;;;1.90;1.60;;;;;11.40;94373.00;;;;7397684;19;20498;-74
2023/03/20 13:11:56;;;;;;;1.95;1.60;;;;;11.50;94362.00;;;;7401383;19;20160;-75
2023/03/20 13:14:43;;;;;;;1.33;1.23;;;;;13.20;94362.00;;;;7398366;19;20156;-75
2023/03/20 13:17:35;;;;;;;3.42;2.17;;;;;12.50;94362.00;;;;7398021;19;20141;-73
2023/03/20 13:20:15;;;;;;;2.30;1.70;;;;;13.10;94362.00;;;;7398981;19;20148;-75